Ellet, Ohio
Current Conditions -  °F | °C
As of 2:54 PM on Thursday 29 Jan 2015 (Local Time) from KAKR Reporting Station
Overcast Overcast  
Wind Chill: 29°   Ceiling: 2500
Heat Index: 37°   Visibility: 10mi
Dew Point: 31°   Wind: 13mph
Humidity: 79%   Direction: 210°SSW
Pressure: 29.73"   Gusts: NA
Location:  41.0159°N, 81.4403°W
Report Text: KAKR 291954Z AUTO 21011KT 10SM OVC025 03/M01 A2973 RMK AO2 SLP077 T00281006 $
Loading
Personal Weather Stations






























Interactive Weather Map New forecast layout! Learn more

10-Day Weather Forecast

Advertisements
Track Severe Weather on mobile